sensor_id;sensor_type;location;lat;lon;timestamp;P1;durP1;ratioP1;P2;durP2;ratioP2
68449;SDS011;67758;39.572;2.652;2023-08-07T00:00:39;19.93;;;3.20;;
68449;SDS011;67758;39.572;2.652;2023-08-07T00:03:05;17.87;;;3.27;;
68449;SDS011;67758;39.572;2.652;2023-08-07T00:05:30;18.02;;;3.60;;
68449;SDS011;67758;39.572;2.652;2023-08-07T00:07:56;16.07;;;3.50;;
68449;SDS011;67758;39.572;2.652;2023-08-07T00:10:22;14.70;;;3.47;;
68449;SDS011;67758;39.572;2.652;2023-08-07T00:12:48;16.10;;;2.83;;
68449;SDS011;67758;39.572;2.652;2023-08-07T00:15:13;20.30;;;3.38;;
68449;SDS011;67758;39.572;2.652;2023-08-07T00:17:39;16.87;;;2.60;;
68449;SDS011;67758;39.572;2.652;2023-08-07T00:20:06;18.27;;;2.75;;
68449;SDS011;67758;39.572;2.652;2023-08-07T00:22:32;17.85;;;3.25;;
68449;SDS011;67758;39.572;2.652;2023-08-07T00:24:58;19.85;;;2.97;;
68449;SDS011;67758;39.572;2.652;2023-08-07T00:27:23;20.83;;;2.83;;
68449;SDS011;67758;39.572;2.652;2023-08-07T00:29:49;19.70;;;3.20;;
68449;SDS011;67758;39.572;2.652;2023-08-07T00:32:15;18.48;;;3.08;;
68449;SDS011;67758;39.572;2.652;2023-08-07T00:34:40;17.63;;;3.17;;
68449;SDS011;67758;39.572;2.652;2023-08-07T00:37:06;15.63;;;2.30;;
68449;SDS011;67758;39.572;2.652;2023-08-07T00:39:31;16.25;;;2.75;;
68449;SDS011;67758;39.572;2.652;2023-08-07T00:41:57;17.57;;;3.03;;
68449;SDS011;67758;39.572;2.652;2023-08-07T00:44:22;16.00;;;2.58;;
68449;SDS011;67758;39.572;2.652;2023-08-07T00:46:48;14.87;;;2.63;;
68449;SDS011;67758;39.572;2.652;2023-08-07T00:49:15;17.58;;;3.00;;
68449;SDS011;67758;39.572;2.652;2023-08-07T00:51:42;17.58;;;2.70;;
68449;SDS011;67758;39.572;2.652;2023-08-07T00:54:08;15.87;;;2.57;;
68449;SDS011;67758;39.572;2.652;2023-08-07T00:56:35;17.20;;;2.53;;
68449;SDS011;67758;39.572;2.652;2023-08-07T00:59:02;16.50;;;2.58;;
68449;SDS011;67758;39.572;2.652;2023-08-07T01:01:28;17.25;;;3.08;;
68449;SDS011;67758;39.572;2.652;2023-08-07T01:03:54;13.63;;;2.37;;
68449;SDS011;67758;39.572;2.652;2023-08-07T01:06:19;20.98;;;2.72;;
68449;SDS011;67758;39.572;2.652;2023-08-07T01:08:45;14.07;;;2.20;;
68449;SDS011;67758;39.572;2.652;2023-08-07T01:19:04;16.17;;;2.70;;
68449;SDS011;67758;39.572;2.652;2023-08-07T01:21:38;16.47;;;2.47;;
68449;SDS011;67758;39.572;2.652;2023-08-07T01:24:04;14.57;;;2.33;;
68449;SDS011;67758;39.572;2.652;2023-08-07T01:26:30;15.40;;;2.67;;
68449;SDS011;67758;39.572;2.652;2023-08-07T01:28:58;13.00;;;2.25;;
68449;SDS011;67758;39.572;2.652;2023-08-07T01:31:32;11.53;;;2.20;;
68449;SDS011;67758;39.572;2.652;2023-08-07T01:34:09;11.55;;;2.10;;
68449;SDS011;67758;39.572;2.652;2023-08-07T01:36:36;15.05;;;2.00;;
68449;SDS011;67758;39.572;2.652;2023-08-07T01:39:04;10.27;;;1.75;;
68449;SDS011;67758;39.572;2.652;2023-08-07T01:41:32;13.00;;;2.00;;
68449;SDS011;67758;39.572;2.652;2023-08-07T01:43:58;15.30;;;2.07;;
68449;SDS011;67758;39.572;2.652;2023-08-07T01:46:24;13.73;;;1.98;;
68449;SDS011;67758;39.572;2.652;2023-08-07T01:48:50;14.13;;;2.08;;
68449;SDS011;67758;39.572;2.652;2023-08-07T01:51:15;16.80;;;2.20;;
68449;SDS011;67758;39.572;2.652;2023-08-07T01:53:41;13.70;;;1.80;;
68449;SDS011;67758;39.572;2.652;2023-08-07T01:56:07;10.32;;;1.98;;
68449;SDS011;67758;39.572;2.652;2023-08-07T01:58:32;17.43;;;1.97;;
68449;SDS011;67758;39.572;2.652;2023-08-07T02:00:58;14.40;;;2.30;;
68449;SDS011;67758;39.572;2.652;2023-08-07T02:03:24;13.70;;;2.77;;
68449;SDS011;67758;39.572;2.652;2023-08-07T02:05:49;13.87;;;2.03;;
68449;SDS011;67758;39.572;2.652;2023-08-07T02:08:15;14.07;;;1.80;;
68449;SDS011;67758;39.572;2.652;2023-08-07T02:10:41;13.77;;;1.97;;
68449;SDS011;67758;39.572;2.652;2023-08-07T02:13:06;10.13;;;1.83;;
68449;SDS011;67758;39.572;2.652;2023-08-07T02:15:32;14.83;;;2.20;;
68449;SDS011;67758;39.572;2.652;2023-08-07T02:17:57;13.48;;;2.22;;
68449;SDS011;67758;39.572;2.652;2023-08-07T02:20:23;12.20;;;1.80;;
68449;SDS011;67758;39.572;2.652;2023-08-07T02:22:49;13.57;;;1.97;;
68449;SDS011;67758;39.572;2.652;2023-08-07T02:25:15;16.42;;;1.92;;
68449;SDS011;67758;39.572;2.652;2023-08-07T02:27:40;13.80;;;2.22;;
68449;SDS011;67758;39.572;2.652;2023-08-07T02:30:06;12.27;;;2.00;;
68449;SDS011;67758;39.572;2.652;2023-08-07T02:32:32;12.45;;;1.80;;
68449;SDS011;67758;39.572;2.652;2023-08-07T02:34:58;13.77;;;2.10;;
68449;SDS011;67758;39.572;2.652;2023-08-07T02:37:24;14.55;;;1.88;;
68449;SDS011;67758;39.572;2.652;2023-08-07T02:39:49;15.83;;;1.93;;
68449;SDS011;67758;39.572;2.652;2023-08-07T02:42:15;10.73;;;1.85;;
68449;SDS011;67758;39.572;2.652;2023-08-07T02:44:40;10.63;;;1.97;;
68449;SDS011;67758;39.572;2.652;2023-08-07T02:47:06;14.40;;;1.97;;
68449;SDS011;67758;39.572;2.652;2023-08-07T02:49:32;10.85;;;1.75;;
68449;SDS011;67758;39.572;2.652;2023-08-07T02:51:57;12.17;;;2.13;;
68449;SDS011;67758;39.572;2.652;2023-08-07T02:54:23;12.77;;;1.90;;
68449;SDS011;67758;39.572;2.652;2023-08-07T02:56:49;12.43;;;1.97;;
68449;SDS011;67758;39.572;2.652;2023-08-07T02:59:15;14.02;;;1.98;;
68449;SDS011;67758;39.572;2.652;2023-08-07T03:01:41;12.40;;;1.95;;
68449;SDS011;67758;39.572;2.652;2023-08-07T03:04:08;11.55;;;2.40;;
68449;SDS011;67758;39.572;2.652;2023-08-07T03:06:34;15.27;;;1.70;;
68449;SDS011;67758;39.572;2.652;2023-08-07T03:08:59;15.70;;;2.00;;
68449;SDS011;67758;39.572;2.652;2023-08-07T03:11:25;12.17;;;2.07;;
68449;SDS011;67758;39.572;2.652;2023-08-07T03:13:50;15.53;;;2.30;;
68449;SDS011;67758;39.572;2.652;2023-08-07T03:16:16;9.53;;;1.90;;
68449;SDS011;67758;39.572;2.652;2023-08-07T03:18:41;13.52;;;2.15;;
68449;SDS011;67758;39.572;2.652;2023-08-07T03:21:07;11.60;;;2.10;;
68449;SDS011;67758;39.572;2.652;2023-08-07T03:23:33;9.38;;;1.30;;
68449;SDS011;67758;39.572;2.652;2023-08-07T03:26:05;10.60;;;2.40;;
68449;SDS011;67758;39.572;2.652;2023-08-07T03:28:33;12.60;;;2.00;;
68449;SDS011;67758;39.572;2.652;2023-08-07T03:30:59;12.15;;;1.50;;
68449;SDS011;67758;39.572;2.652;2023-08-07T03:33:25;12.15;;;2.00;;
68449;SDS011;67758;39.572;2.652;2023-08-07T03:35:51;13.63;;;2.40;;
68449;SDS011;67758;39.572;2.652;2023-08-07T03:38:17;9.70;;;1.70;;
68449;SDS011;67758;39.572;2.652;2023-08-07T03:40:43;12.75;;;2.05;;
68449;SDS011;67758;39.572;2.652;2023-08-07T03:43:09;10.83;;;1.67;;
68449;SDS011;67758;39.572;2.652;2023-08-07T03:45:35;9.48;;;1.42;;
68449;SDS011;67758;39.572;2.652;2023-08-07T03:48:00;15.80;;;2.00;;
68449;SDS011;67758;39.572;2.652;2023-08-07T03:50:26;14.95;;;1.92;;
68449;SDS011;67758;39.572;2.652;2023-08-07T03:52:51;14.60;;;2.00;;
68449;SDS011;67758;39.572;2.652;2023-08-07T03:55:17;13.43;;;1.85;;
68449;SDS011;67758;39.572;2.652;2023-08-07T03:57:43;13.32;;;1.65;;
68449;SDS011;67758;39.572;2.652;2023-08-07T04:00:09;11.02;;;1.90;;
68449;SDS011;67758;39.572;2.652;2023-08-07T04:02:35;13.23;;;1.63;;
68449;SDS011;67758;39.572;2.652;2023-08-07T04:05:01;13.70;;;2.00;;
68449;SDS011;67758;39.572;2.652;2023-08-07T04:07:27;13.40;;;2.08;;
68449;SDS011;67758;39.572;2.652;2023-08-07T04:09:53;11.38;;;2.05;;
68449;SDS011;67758;39.572;2.652;2023-08-07T04:12:18;14.18;;;2.05;;
68449;SDS011;67758;39.572;2.652;2023-08-07T04:14:44;10.60;;;1.73;;
68449;SDS011;67758;39.572;2.652;2023-08-07T04:17:09;9.43;;;1.60;;
68449;SDS011;67758;39.572;2.652;2023-08-07T04:19:36;13.85;;;1.58;;
68449;SDS011;67758;39.572;2.652;2023-08-07T04:22:02;13.65;;;2.10;;
68449;SDS011;67758;39.572;2.652;2023-08-07T04:24:27;12.30;;;1.77;;
68449;SDS011;67758;39.572;2.652;2023-08-07T04:26:53;10.93;;;1.83;;
68449;SDS011;67758;39.572;2.652;2023-08-07T04:29:19;15.27;;;1.93;;
68449;SDS011;67758;39.572;2.652;2023-08-07T04:31:44;14.30;;;1.92;;
68449;SDS011;67758;39.572;2.652;2023-08-07T04:34:10;8.93;;;1.70;;
68449;SDS011;67758;39.572;2.652;2023-08-07T04:36:36;11.55;;;1.90;;
68449;SDS011;67758;39.572;2.652;2023-08-07T04:39:01;11.50;;;1.63;;
68449;SDS011;67758;39.572;2.652;2023-08-07T04:41:28;13.07;;;1.60;;
68449;SDS011;67758;39.572;2.652;2023-08-07T04:43:53;10.63;;;1.77;;
68449;SDS011;67758;39.572;2.652;2023-08-07T04:46:19;12.10;;;2.70;;
68449;SDS011;67758;39.572;2.652;2023-08-07T04:48:44;17.42;;;2.47;;
68449;SDS011;67758;39.572;2.652;2023-08-07T04:51:10;8.40;;;1.67;;
68449;SDS011;67758;39.572;2.652;2023-08-07T04:53:36;16.75;;;2.08;;
68449;SDS011;67758;39.572;2.652;2023-08-07T04:56:01;10.37;;;1.70;;
68449;SDS011;67758;39.572;2.652;2023-08-07T04:58:27;11.93;;;1.50;;
68449;SDS011;67758;39.572;2.652;2023-08-07T05:00:56;12.00;;;1.77;;
68449;SDS011;67758;39.572;2.652;2023-08-07T05:03:23;11.57;;;1.83;;
68449;SDS011;67758;39.572;2.652;2023-08-07T05:05:49;10.63;;;2.00;;
68449;SDS011;67758;39.572;2.652;2023-08-07T05:08:14;8.03;;;1.50;;
68449;SDS011;67758;39.572;2.652;2023-08-07T05:10:41;11.88;;;2.13;;
68449;SDS011;67758;39.572;2.652;2023-08-07T05:13:06;11.57;;;1.87;;
68449;SDS011;67758;39.572;2.652;2023-08-07T05:15:32;13.30;;;2.00;;
68449;SDS011;67758;39.572;2.652;2023-08-07T05:17:58;19.52;;;2.20;;
68449;SDS011;67758;39.572;2.652;2023-08-07T05:20:23;13.37;;;1.83;;
68449;SDS011;67758;39.572;2.652;2023-08-07T05:22:49;9.90;;;1.60;;
68449;SDS011;67758;39.572;2.652;2023-08-07T05:25:15;15.23;;;4.23;;
68449;SDS011;67758;39.572;2.652;2023-08-07T05:27:42;10.40;;;1.85;;
68449;SDS011;67758;39.572;2.652;2023-08-07T05:30:08;13.27;;;2.33;;
68449;SDS011;67758;39.572;2.652;2023-08-07T05:32:35;11.33;;;1.57;;
68449;SDS011;67758;39.572;2.652;2023-08-07T05:35:06;11.73;;;1.60;;
68449;SDS011;67758;39.572;2.652;2023-08-07T05:37:32;11.55;;;2.45;;
68449;SDS011;67758;39.572;2.652;2023-08-07T05:39:58;12.25;;;1.95;;
68449;SDS011;67758;39.572;2.652;2023-08-07T05:42:24;10.63;;;1.97;;
68449;SDS011;67758;39.572;2.652;2023-08-07T05:44:50;13.60;;;2.08;;
68449;SDS011;67758;39.572;2.652;2023-08-07T05:47:15;11.43;;;2.10;;
68449;SDS011;67758;39.572;2.652;2023-08-07T05:49:41;9.70;;;2.30;;
68449;SDS011;67758;39.572;2.652;2023-08-07T05:52:07;16.55;;;2.28;;
68449;SDS011;67758;39.572;2.652;2023-08-07T05:54:33;12.30;;;2.00;;
68449;SDS011;67758;39.572;2.652;2023-08-07T05:56:58;12.63;;;2.10;;
68449;SDS011;67758;39.572;2.652;2023-08-07T05:59:24;14.38;;;1.85;;
68449;SDS011;67758;39.572;2.652;2023-08-07T06:01:50;10.40;;;1.93;;
68449;SDS011;67758;39.572;2.652;2023-08-07T06:04:16;14.45;;;2.47;;
68449;SDS011;67758;39.572;2.652;2023-08-07T06:06:42;9.02;;;1.80;;
68449;SDS011;67758;39.572;2.652;2023-08-07T06:09:08;20.50;;;2.35;;
68449;SDS011;67758;39.572;2.652;2023-08-07T06:11:33;16.02;;;2.40;;
68449;SDS011;67758;39.572;2.652;2023-08-07T06:13:59;10.97;;;2.30;;
68449;SDS011;67758;39.572;2.652;2023-08-07T06:16:25;13.68;;;2.05;;
68449;SDS011;67758;39.572;2.652;2023-08-07T06:18:51;11.73;;;1.70;;
68449;SDS011;67758;39.572;2.652;2023-08-07T06:21:17;16.50;;;2.20;;
68449;SDS011;67758;39.572;2.652;2023-08-07T06:23:42;16.50;;;2.70;;
68449;SDS011;67758;39.572;2.652;2023-08-07T06:26:08;11.50;;;1.73;;
68449;SDS011;67758;39.572;2.652;2023-08-07T06:28:34;12.07;;;2.15;;
68449;SDS011;67758;39.572;2.652;2023-08-07T06:31:02;8.73;;;1.77;;
68449;SDS011;67758;39.572;2.652;2023-08-07T06:33:28;12.00;;;1.90;;
68449;SDS011;67758;39.572;2.652;2023-08-07T06:35:54;12.15;;;2.10;;
68449;SDS011;67758;39.572;2.652;2023-08-07T06:38:20;10.37;;;2.23;;
68449;SDS011;67758;39.572;2.652;2023-08-07T06:40:45;11.85;;;2.10;;
68449;SDS011;67758;39.572;2.652;2023-08-07T06:43:11;15.93;;;2.27;;
68449;SDS011;67758;39.572;2.652;2023-08-07T06:45:36;10.45;;;2.50;;
68449;SDS011;67758;39.572;2.652;2023-08-07T06:48:02;13.13;;;2.83;;
68449;SDS011;67758;39.572;2.652;2023-08-07T06:50:27;12.23;;;2.33;;
68449;SDS011;67758;39.572;2.652;2023-08-07T06:52:53;13.05;;;1.67;;
68449;SDS011;67758;39.572;2.652;2023-08-07T06:55:19;13.15;;;2.40;;
68449;SDS011;67758;39.572;2.652;2023-08-07T06:57:45;15.27;;;2.70;;
68449;SDS011;67758;39.572;2.652;2023-08-07T07:00:11;14.75;;;2.13;;
68449;SDS011;67758;39.572;2.652;2023-08-07T07:02:37;14.93;;;2.58;;
68449;SDS011;67758;39.572;2.652;2023-08-07T07:05:02;12.17;;;2.13;;
68449;SDS011;67758;39.572;2.652;2023-08-07T07:07:30;13.35;;;2.15;;
68449;SDS011;67758;39.572;2.652;2023-08-07T07:09:56;11.73;;;2.42;;
68449;SDS011;67758;39.572;2.652;2023-08-07T07:12:23;11.83;;;2.40;;
68449;SDS011;67758;39.572;2.652;2023-08-07T07:14:48;10.98;;;2.40;;
68449;SDS011;67758;39.572;2.652;2023-08-07T07:17:14;16.13;;;1.87;;
68449;SDS011;67758;39.572;2.652;2023-08-07T07:19:40;12.95;;;2.20;;
68449;SDS011;67758;39.572;2.652;2023-08-07T07:22:05;11.03;;;2.17;;
68449;SDS011;67758;39.572;2.652;2023-08-07T07:24:31;14.13;;;2.10;;
68449;SDS011;67758;39.572;2.652;2023-08-07T07:26:58;12.40;;;2.03;;
68449;SDS011;67758;39.572;2.652;2023-08-07T07:29:23;13.98;;;2.35;;
68449;SDS011;67758;39.572;2.652;2023-08-07T07:31:49;9.97;;;2.37;;
68449;SDS011;67758;39.572;2.652;2023-08-07T07:34:15;12.65;;;2.20;;
68449;SDS011;67758;39.572;2.652;2023-08-07T07:36:41;10.30;;;2.17;;
68449;SDS011;67758;39.572;2.652;2023-08-07T07:39:07;13.18;;;2.40;;
68449;SDS011;67758;39.572;2.652;2023-08-07T07:41:32;11.97;;;2.23;;
68449;SDS011;67758;39.572;2.652;2023-08-07T07:43:58;15.27;;;2.47;;
68449;SDS011;67758;39.572;2.652;2023-08-07T07:46:25;15.90;;;2.65;;
68449;SDS011;67758;39.572;2.652;2023-08-07T07:48:51;16.23;;;2.40;;
68449;SDS011;67758;39.572;2.652;2023-08-07T07:51:16;10.68;;;1.70;;
68449;SDS011;67758;39.572;2.652;2023-08-07T07:53:42;12.23;;;2.00;;
68449;SDS011;67758;39.572;2.652;2023-08-07T07:56:07;10.63;;;2.17;;
68449;SDS011;67758;39.572;2.652;2023-08-07T07:58:33;10.87;;;2.43;;
68449;SDS011;67758;39.572;2.652;2023-08-07T08:00:59;14.00;;;2.20;;
68449;SDS011;67758;39.572;2.652;2023-08-07T08:03:24;9.77;;;1.63;;
68449;SDS011;67758;39.572;2.652;2023-08-07T08:05:50;17.77;;;2.70;;
68449;SDS011;67758;39.572;2.652;2023-08-07T08:08:17;11.30;;;2.35;;
68449;SDS011;67758;39.572;2.652;2023-08-07T08:10:43;16.02;;;2.38;;
68449;SDS011;67758;39.572;2.652;2023-08-07T08:13:10;10.60;;;1.98;;
68449;SDS011;67758;39.572;2.652;2023-08-07T08:15:36;18.30;;;2.63;;
68449;SDS011;67758;39.572;2.652;2023-08-07T08:18:01;14.57;;;2.30;;
68449;SDS011;67758;39.572;2.652;2023-08-07T08:20:27;12.67;;;3.07;;
68449;SDS011;67758;39.572;2.652;2023-08-07T08:22:55;18.50;;;2.78;;
68449;SDS011;67758;39.572;2.652;2023-08-07T08:25:20;19.80;;;2.60;;
68449;SDS011;67758;39.572;2.652;2023-08-07T08:27:46;12.07;;;2.63;;
68449;SDS011;67758;39.572;2.652;2023-08-07T08:30:12;18.27;;;2.63;;
68449;SDS011;67758;39.572;2.652;2023-08-07T08:32:38;11.20;;;1.90;;
68449;SDS011;67758;39.572;2.652;2023-08-07T08:35:04;14.90;;;2.55;;
68449;SDS011;67758;39.572;2.652;2023-08-07T08:37:31;11.23;;;2.00;;
68449;SDS011;67758;39.572;2.652;2023-08-07T08:39:56;15.55;;;2.53;;
68449;SDS011;67758;39.572;2.652;2023-08-07T08:42:22;10.20;;;1.70;;
68449;SDS011;67758;39.572;2.652;2023-08-07T08:44:51;11.73;;;3.00;;
68449;SDS011;67758;39.572;2.652;2023-08-07T08:47:25;14.82;;;2.40;;
68449;SDS011;67758;39.572;2.652;2023-08-07T08:50:01;11.68;;;2.90;;
68449;SDS011;67758;39.572;2.652;2023-08-07T08:52:30;12.23;;;2.67;;
68449;SDS011;67758;39.572;2.652;2023-08-07T08:54:57;10.95;;;2.17;;
68449;SDS011;67758;39.572;2.652;2023-08-07T08:57:24;15.43;;;2.10;;
68449;SDS011;67758;39.572;2.652;2023-08-07T08:59:51;11.63;;;2.20;;
68449;SDS011;67758;39.572;2.652;2023-08-07T09:02:17;11.43;;;2.83;;
68449;SDS011;67758;39.572;2.652;2023-08-07T09:04:44;10.02;;;1.95;;
68449;SDS011;67758;39.572;2.652;2023-08-07T09:07:10;10.27;;;2.25;;
68449;SDS011;67758;39.572;2.652;2023-08-07T09:09:39;11.32;;;2.13;;
68449;SDS011;67758;39.572;2.652;2023-08-07T09:12:06;14.07;;;2.73;;
68449;SDS011;67758;39.572;2.652;2023-08-07T09:14:38;10.65;;;2.40;;
68449;SDS011;67758;39.572;2.652;2023-08-07T09:17:06;13.27;;;2.53;;
68449;SDS011;67758;39.572;2.652;2023-08-07T09:19:33;14.70;;;2.53;;
68449;SDS011;67758;39.572;2.652;2023-08-07T09:21:58;11.90;;;2.03;;
68449;SDS011;67758;39.572;2.652;2023-08-07T09:24:24;10.93;;;1.88;;
68449;SDS011;67758;39.572;2.652;2023-08-07T09:26:53;13.57;;;2.37;;
68449;SDS011;67758;39.572;2.652;2023-08-07T09:29:20;13.27;;;2.70;;
68449;SDS011;67758;39.572;2.652;2023-08-07T09:31:47;17.83;;;2.50;;
68449;SDS011;67758;39.572;2.652;2023-08-07T09:34:13;16.93;;;3.00;;
68449;SDS011;67758;39.572;2.652;2023-08-07T09:36:41;8.13;;;1.98;;
68449;SDS011;67758;39.572;2.652;2023-08-07T09:39:07;11.43;;;2.30;;
68449;SDS011;67758;39.572;2.652;2023-08-07T09:41:33;25.42;;;2.72;;
68449;SDS011;67758;39.572;2.652;2023-08-07T09:44:05;15.73;;;2.42;;
68449;SDS011;67758;39.572;2.652;2023-08-07T09:46:40;11.27;;;2.17;;
68449;SDS011;67758;39.572;2.652;2023-08-07T09:49:06;10.20;;;2.30;;
68449;SDS011;67758;39.572;2.652;2023-08-07T09:51:45;9.15;;;1.85;;
68449;SDS011;67758;39.572;2.652;2023-08-07T09:54:12;15.00;;;2.65;;
68449;SDS011;67758;39.572;2.652;2023-08-07T09:56:39;15.30;;;2.90;;
68449;SDS011;67758;39.572;2.652;2023-08-07T09:59:05;14.00;;;2.60;;
68449;SDS011;67758;39.572;2.652;2023-08-07T10:01:32;14.25;;;2.78;;
68449;SDS011;67758;39.572;2.652;2023-08-07T10:04:01;13.93;;;2.60;;
68449;SDS011;67758;39.572;2.652;2023-08-07T10:06:27;10.88;;;2.17;;
68449;SDS011;67758;39.572;2.652;2023-08-07T10:08:53;9.17;;;2.60;;
68449;SDS011;67758;39.572;2.652;2023-08-07T10:11:20;12.23;;;2.55;;
68449;SDS011;67758;39.572;2.652;2023-08-07T10:13:46;13.57;;;2.60;;
68449;SDS011;67758;39.572;2.652;2023-08-07T10:16:13;14.52;;;2.65;;
68449;SDS011;67758;39.572;2.652;2023-08-07T10:18:39;11.00;;;2.80;;
68449;SDS011;67758;39.572;2.652;2023-08-07T10:21:05;12.95;;;3.13;;
68449;SDS011;67758;39.572;2.652;2023-08-07T10:23:35;10.60;;;2.42;;
68449;SDS011;67758;39.572;2.652;2023-08-07T10:26:03;13.60;;;3.20;;
68449;SDS011;67758;39.572;2.652;2023-08-07T10:28:30;9.20;;;2.40;;
68449;SDS011;67758;39.572;2.652;2023-08-07T10:30:59;11.73;;;2.85;;
68449;SDS011;67758;39.572;2.652;2023-08-07T10:33:25;14.13;;;3.35;;
68449;SDS011;67758;39.572;2.652;2023-08-07T10:35:52;13.45;;;2.80;;
68449;SDS011;67758;39.572;2.652;2023-08-07T10:38:22;11.70;;;2.30;;
68449;SDS011;67758;39.572;2.652;2023-08-07T10:41:02;10.38;;;2.75;;
68449;SDS011;67758;39.572;2.652;2023-08-07T10:43:32;14.13;;;3.20;;
68449;SDS011;67758;39.572;2.652;2023-08-07T10:46:03;12.27;;;2.95;;
68449;SDS011;67758;39.572;2.652;2023-08-07T10:48:30;11.50;;;2.92;;
68449;SDS011;67758;39.572;2.652;2023-08-07T10:51:03;11.93;;;3.75;;
68449;SDS011;67758;39.572;2.652;2023-08-07T10:53:36;17.15;;;3.70;;
68449;SDS011;67758;39.572;2.652;2023-08-07T10:56:09;13.98;;;3.42;;
68449;SDS011;67758;39.572;2.652;2023-08-07T10:58:37;17.17;;;4.53;;
68449;SDS011;67758;39.572;2.652;2023-08-07T11:04:06;12.10;;;3.88;;
68449;SDS011;67758;39.572;2.652;2023-08-07T11:06:34;10.13;;;4.18;;
68449;SDS011;67758;39.572;2.652;2023-08-07T11:09:01;12.73;;;5.30;;
68449;SDS011;67758;39.572;2.652;2023-08-07T11:11:39;15.07;;;5.47;;
68449;SDS011;67758;39.572;2.652;2023-08-07T11:14:06;19.37;;;8.17;;
68449;SDS011;67758;39.572;2.652;2023-08-07T11:16:33;16.75;;;5.20;;
68449;SDS011;67758;39.572;2.652;2023-08-07T11:19:00;15.32;;;5.70;;
68449;SDS011;67758;39.572;2.652;2023-08-07T11:21:26;19.65;;;6.75;;
68449;SDS011;67758;39.572;2.652;2023-08-07T11:23:51;18.27;;;4.37;;
68449;SDS011;67758;39.572;2.652;2023-08-07T11:26:18;15.70;;;4.03;;
68449;SDS011;67758;39.572;2.652;2023-08-07T11:28:47;11.32;;;3.45;;
68449;SDS011;67758;39.572;2.652;2023-08-07T11:31:13;14.07;;;4.30;;
68449;SDS011;67758;39.572;2.652;2023-08-07T11:33:40;11.57;;;4.10;;
68449;SDS011;67758;39.572;2.652;2023-08-07T11:36:14;14.50;;;5.18;;
68449;SDS011;67758;39.572;2.652;2023-08-07T11:38:41;12.65;;;5.20;;
68449;SDS011;67758;39.572;2.652;2023-08-07T11:41:11;13.40;;;4.72;;
68449;SDS011;67758;39.572;2.652;2023-08-07T11:43:38;10.00;;;4.93;;
68449;SDS011;67758;39.572;2.652;2023-08-07T11:46:04;14.47;;;5.53;;
68449;SDS011;67758;39.572;2.652;2023-08-07T11:48:33;16.55;;;6.97;;
68449;SDS011;67758;39.572;2.652;2023-08-07T11:51:00;16.20;;;5.72;;
68449;SDS011;67758;39.572;2.652;2023-08-07T11:53:30;11.73;;;5.35;;
68449;SDS011;67758;39.572;2.652;2023-08-07T11:56:05;13.15;;;5.78;;
68449;SDS011;67758;39.572;2.652;2023-08-07T11:58:35;10.60;;;5.60;;
68449;SDS011;67758;39.572;2.652;2023-08-07T12:01:03;8.25;;;4.18;;
68449;SDS011;67758;39.572;2.652;2023-08-07T12:03:50;12.88;;;5.93;;
68449;SDS011;67758;39.572;2.652;2023-08-07T12:06:16;11.32;;;5.22;;
68449;SDS011;67758;39.572;2.652;2023-08-07T12:08:42;11.07;;;5.53;;
68449;SDS011;67758;39.572;2.652;2023-08-07T12:11:11;11.65;;;5.72;;
68449;SDS011;67758;39.572;2.652;2023-08-07T12:13:41;14.23;;;6.53;;
68449;SDS011;67758;39.572;2.652;2023-08-07T12:16:08;13.93;;;6.23;;
68449;SDS011;67758;39.572;2.652;2023-08-07T12:18:35;15.20;;;7.03;;
68449;SDS011;67758;39.572;2.652;2023-08-07T12:21:03;16.98;;;7.88;;
68449;SDS011;67758;39.572;2.652;2023-08-07T12:23:34;14.82;;;6.07;;
68449;SDS011;67758;39.572;2.652;2023-08-07T12:26:01;10.80;;;5.90;;
68449;SDS011;67758;39.572;2.652;2023-08-07T12:28:28;19.97;;;7.23;;
68449;SDS011;67758;39.572;2.652;2023-08-07T12:30:54;12.93;;;5.85;;
68449;SDS011;67758;39.572;2.652;2023-08-07T12:33:19;14.43;;;6.53;;
68449;SDS011;67758;39.572;2.652;2023-08-07T12:35:45;12.20;;;6.70;;
68449;SDS011;67758;39.572;2.652;2023-08-07T12:38:11;16.03;;;7.10;;
68449;SDS011;67758;39.572;2.652;2023-08-07T12:40:39;16.88;;;6.70;;
68449;SDS011;67758;39.572;2.652;2023-08-07T12:43:05;13.07;;;5.72;;
68449;SDS011;67758;39.572;2.652;2023-08-07T12:45:31;11.23;;;4.47;;
68449;SDS011;67758;39.572;2.652;2023-08-07T12:48:00;12.23;;;4.13;;
68449;SDS011;67758;39.572;2.652;2023-08-07T12:50:25;10.15;;;3.78;;
68449;SDS011;67758;39.572;2.652;2023-08-07T12:52:51;10.55;;;4.70;;
68449;SDS011;67758;39.572;2.652;2023-08-07T12:55:17;13.03;;;4.50;;
68449;SDS011;67758;39.572;2.652;2023-08-07T12:57:43;13.85;;;5.28;;
68449;SDS011;67758;39.572;2.652;2023-08-07T13:00:10;14.38;;;5.22;;
68449;SDS011;67758;39.572;2.652;2023-08-07T13:02:44;13.03;;;4.27;;
68449;SDS011;67758;39.572;2.652;2023-08-07T13:05:11;13.05;;;3.45;;
68449;SDS011;67758;39.572;2.652;2023-08-07T13:07:38;18.95;;;4.82;;
68449;SDS011;67758;39.572;2.652;2023-08-07T13:10:04;13.45;;;4.20;;
68449;SDS011;67758;39.572;2.652;2023-08-07T13:12:34;13.23;;;4.47;;
68449;SDS011;67758;39.572;2.652;2023-08-07T13:15:01;12.80;;;3.93;;
68449;SDS011;67758;39.572;2.652;2023-08-07T13:17:27;11.75;;;4.05;;
68449;SDS011;67758;39.572;2.652;2023-08-07T13:19:52;10.60;;;4.03;;
68449;SDS011;67758;39.572;2.652;2023-08-07T13:22:18;10.60;;;4.17;;
68449;SDS011;67758;39.572;2.652;2023-08-07T13:24:44;13.98;;;4.35;;
68449;SDS011;67758;39.572;2.652;2023-08-07T13:27:09;10.95;;;3.60;;
68449;SDS011;67758;39.572;2.652;2023-08-07T13:29:35;11.37;;;4.03;;
68449;SDS011;67758;39.572;2.652;2023-08-07T13:32:01;11.50;;;3.90;;
68449;SDS011;67758;39.572;2.652;2023-08-07T13:34:29;15.60;;;3.88;;
68449;SDS011;67758;39.572;2.652;2023-08-07T13:36:55;11.23;;;4.15;;
68449;SDS011;67758;39.572;2.652;2023-08-07T13:39:20;12.37;;;3.60;;
68449;SDS011;67758;39.572;2.652;2023-08-07T13:41:46;14.45;;;3.42;;
68449;SDS011;67758;39.572;2.652;2023-08-07T13:44:12;10.77;;;4.10;;
68449;SDS011;67758;39.572;2.652;2023-08-07T13:46:38;12.95;;;3.83;;
68449;SDS011;67758;39.572;2.652;2023-08-07T13:49:03;12.83;;;3.80;;
68449;SDS011;67758;39.572;2.652;2023-08-07T13:51:29;12.45;;;3.28;;
68449;SDS011;67758;39.572;2.652;2023-08-07T13:53:54;12.27;;;3.40;;
68449;SDS011;67758;39.572;2.652;2023-08-07T13:56:20;12.50;;;2.97;;
68449;SDS011;67758;39.572;2.652;2023-08-07T13:58:46;10.07;;;2.90;;
68449;SDS011;67758;39.572;2.652;2023-08-07T14:01:11;12.70;;;3.80;;
68449;SDS011;67758;39.572;2.652;2023-08-07T14:03:37;8.07;;;2.95;;
68449;SDS011;67758;39.572;2.652;2023-08-07T14:06:03;9.97;;;2.70;;
68449;SDS011;67758;39.572;2.652;2023-08-07T14:08:28;12.82;;;3.63;;
68449;SDS011;67758;39.572;2.652;2023-08-07T14:10:54;12.10;;;2.90;;
68449;SDS011;67758;39.572;2.652;2023-08-07T14:13:20;14.23;;;3.60;;
68449;SDS011;67758;39.572;2.652;2023-08-07T14:15:45;10.43;;;3.03;;
68449;SDS011;67758;39.572;2.652;2023-08-07T14:18:12;17.02;;;4.05;;
68449;SDS011;67758;39.572;2.652;2023-08-07T14:20:40;11.82;;;3.15;;
68449;SDS011;67758;39.572;2.652;2023-08-07T14:23:05;11.67;;;3.23;;
68449;SDS011;67758;39.572;2.652;2023-08-07T14:25:31;12.18;;;2.88;;
68449;SDS011;67758;39.572;2.652;2023-08-07T14:27:56;10.80;;;2.53;;
68449;SDS011;67758;39.572;2.652;2023-08-07T14:30:22;12.33;;;2.90;;
68449;SDS011;67758;39.572;2.652;2023-08-07T14:32:48;9.20;;;3.20;;
68449;SDS011;67758;39.572;2.652;2023-08-07T14:35:14;18.02;;;3.85;;
68449;SDS011;67758;39.572;2.652;2023-08-07T14:37:40;9.73;;;3.40;;
68449;SDS011;67758;39.572;2.652;2023-08-07T14:40:06;13.10;;;4.57;;
68449;SDS011;67758;39.572;2.652;2023-08-07T14:42:32;12.63;;;4.10;;